Flight Track Log - Related Links

Times and Time Zones

All times are in EDT time to prevent confusion due to time zone crossing. See the N920AC flight status page for this flight to view local times or setup timezone preferences in your user account.

Time Position Orientation Groundspeed Altitude Reporting Facility
EDT Latitude Longitude Course Direction KTS MPH feet Rate Location/Type
Sat 12:53:00 PM 26.1524 -81.7756 146° Southeast  Level Estimated
Sat 12:54:00 PM 26.1472 -81.7718 146° Southeast  Level FlightAware Approximate
Sat 12:55:00 PM 26.1420 -81.7679 146° Southeast  Level FlightAware Approximate
Sat 12:56:00 PM 26.1368 -81.7641 146° Southeast  Level FlightAware Approximate
Sat 12:57:00 PM 26.1316 -81.7602 146° Southeast  Level FlightAware Approximate
Sat 12:58:00 PM 26.1263 -81.7563 146° Southeast  Level FlightAware Approximate
Sat 12:59:00 PM 26.1316 -81.7602 156° South  Level Estimated
Sat 01:00:00 PM 26.1261 -81.7568 150° Southeast  Level FlightAware Approximate
Sat 01:01:00 PM 26.1207 -81.7533 150° Southeast  Level FlightAware Approximate
Sat 01:02:00 PM 26.1152 -81.7499 150° Southeast  Level FlightAware Approximate
Sat 01:03:00 PM 26.1098 -81.7464 150° Southeast  Level FlightAware Approximate
Sat 01:04:00 PM 26.1043 -81.7430 150° Southeast  Level FlightAware Approximate
Sat 01:05:00 PM 26.0989 -81.7396 150° Southeast  Level FlightAware Approximate
Sat 01:06:00 PM 26.0934 -81.7361 150° Southeast  Level FlightAware Approximate
Sat 01:07:00 PM 26.0880 -81.7327 150° Southeast  Level FlightAware Approximate
Sat 01:08:00 PM 26.0825 -81.7292 150° Southeast  Level FlightAware Approximate
Sat 01:09:00 PM 26.0771 -81.7258 150° Southeast  Level FlightAware Approximate
Sat 01:10:00 PM 26.0716 -81.7224 150° Southeast  Level FlightAware Approximate
Sat 01:11:00 PM 26.0770 -81.7259 318° Northwest  Level Estimated
Sat 01:12:00 PM 26.0714 -81.7228 154° Southeast  Level FlightAware Approximate
Sat 01:13:00 PM 26.0658 -81.7197 154° Southeast  Level FlightAware Approximate
Sat 01:14:00 PM 26.0712 -81.7232 336° Northwest  Level Estimated
Sat 01:15:00 PM 26.0674 -81.7177 128° Southeast  Level FlightAware Approximate
Sat 01:16:00 PM 26.0636 -81.7122 127° Southeast  Level FlightAware Approximate
Sat 01:17:00 PM 26.0674 -81.7177 307° West  Level FlightAware Approximate
Sat 01:18:00 PM 26.0636 -81.7122 127° Southeast  Level FlightAware Approximate
Sat 01:19:00 PM 26.0674 -81.7177 307° West  Level FlightAware Approximate
Sat 01:20:00 PM 26.0636 -81.7122 127° Southeast  Level FlightAware Approximate
Sat 01:21:00 PM 26.0674 -81.7177 307° West  Level FlightAware Approximate
Sat 01:22:00 PM 26.0636 -81.7122 127° Southeast  Level FlightAware Approximate

Login

Don't have an account? Register now (free) for customized features, flight alerts, and more!